createdAt,value
2017-03-30T00:00:03.126Z,0
2017-03-30T00:05:02.748Z,0
2017-03-30T00:10:02.499Z,0
2017-03-30T00:15:03.228Z,0
2017-03-30T00:20:02.925Z,0
2017-03-30T00:25:02.619Z,0
2017-03-30T00:30:03.300Z,0
2017-03-30T00:35:02.992Z,0
2017-03-30T00:40:02.745Z,0
2017-03-30T00:45:03.449Z,0
2017-03-30T00:50:03.094Z,0
2017-03-30T00:55:02.826Z,0
2017-03-30T01:00:02.531Z,0
2017-03-30T01:05:03.326Z,0
2017-03-30T01:10:03.128Z,0
2017-03-30T01:15:02.827Z,0
2017-03-30T01:20:02.606Z,0
2017-03-30T01:25:03.337Z,0
2017-03-30T01:30:03.116Z,0
2017-03-30T01:35:02.743Z,0
2017-03-30T01:40:02.499Z,0
2017-03-30T01:45:03.263Z,0
2017-03-30T01:50:02.876Z,0
2017-03-30T01:55:02.494Z,0
2017-03-30T02:00:03.226Z,0
2017-03-30T02:05:02.827Z,0
2017-03-30T02:10:03.218Z,0
2017-03-30T02:15:02.931Z,0
2017-03-30T02:20:02.576Z,0
2017-03-30T02:25:03.354Z,0
2017-03-30T02:30:03.201Z,0
2017-03-30T02:35:02.851Z,0
2017-03-30T02:40:02.591Z,0
2017-03-30T02:45:03.463Z,0
2017-03-30T02:50:03.035Z,0
2017-03-30T02:55:02.603Z,0
2017-03-30T03:00:03.259Z,0
2017-03-30T03:05:03.064Z,0
2017-03-30T03:10:02.747Z,0
2017-03-30T03:15:02.487Z,0
2017-03-30T03:20:03.085Z,0
2017-03-30T03:25:02.816Z,0
2017-03-30T03:30:02.599Z,0
2017-03-30T03:35:03.177Z,0
2017-03-30T03:40:02.911Z,0
2017-03-30T03:45:02.581Z,0
2017-03-30T03:50:03.164Z,0
2017-03-30T03:55:02.768Z,0
2017-03-30T04:00:02.542Z,0
2017-03-30T04:05:03.395Z,0
2017-03-30T04:10:03.263Z,0
2017-03-30T04:15:02.981Z,0
2017-03-30T04:20:02.734Z,0
2017-03-30T04:25:03.304Z,0
2017-03-30T04:30:02.687Z,0
2017-03-30T04:35:02.469Z,0
2017-03-30T04:40:03.133Z,0
2017-03-30T04:45:02.799Z,0
2017-03-30T04:50:03.434Z,2
2017-03-30T04:55:03.144Z,7
2017-03-30T05:00:02.890Z,15
2017-03-30T05:05:02.528Z,23
2017-03-30T05:10:03.183Z,36
2017-03-30T05:15:02.846Z,50
2017-03-30T05:20:03.439Z,65
2017-03-30T05:25:03.063Z,96
2017-03-30T05:30:02.815Z,129
2017-03-30T05:35:02.582Z,278
2017-03-30T05:40:03.335Z,409
2017-03-30T05:45:02.929Z,506
2017-03-30T05:50:02.678Z,531
2017-03-30T05:55:03.323Z,576
2017-03-30T06:00:02.910Z,850
2017-03-30T06:05:02.533Z,981
2017-03-30T06:10:03.320Z,1000
2017-03-30T06:15:03.061Z,1000
2017-03-30T06:20:02.763Z,1000
2017-03-30T06:25:02.482Z,1000
2017-03-30T06:30:03.262Z,1000
2017-03-30T06:35:02.908Z,1000
2017-03-30T06:40:02.496Z,1000
2017-03-30T06:45:03.135Z,2000
2017-03-30T06:50:02.820Z,2000
2017-03-30T06:55:02.477Z,2000
2017-03-30T07:00:03.233Z,2000
2017-03-30T07:05:02.919Z,2000
2017-03-30T07:10:02.607Z,3000
2017-03-30T07:15:03.242Z,3000
2017-03-30T07:20:02.830Z,6000
2017-03-30T07:25:03.449Z,7000
2017-03-30T07:30:03.128Z,7000
2017-03-30T07:35:02.649Z,9000
2017-03-30T07:40:03.311Z,11000
2017-03-30T07:45:03.102Z,6000
2017-03-30T07:50:02.749Z,5000
2017-03-30T07:55:03.364Z,5000
2017-03-30T08:00:03.070Z,7000
2017-03-30T08:05:02.802Z,9000
2017-03-30T08:10:02.612Z,9000
2017-03-30T08:15:03.229Z,8000
2017-03-30T08:20:02.865Z,11000
2017-03-30T08:25:03.454Z,30000
2017-03-30T08:30:03.254Z,14000
2017-03-30T08:35:02.989Z,36000
2017-03-30T08:40:02.573Z,16000
2017-03-30T08:45:03.302Z,15000
2017-03-30T08:50:02.925Z,42000
2017-03-30T08:55:02.612Z,45000
2017-03-30T09:00:03.286Z,23000
2017-03-30T09:05:02.855Z,25000
2017-03-30T09:10:02.587Z,21000
2017-03-30T09:15:03.378Z,26000
2017-03-30T09:20:03.186Z,50000
2017-03-30T09:25:02.751Z,32000
2017-03-30T09:30:02.645Z,30000
2017-03-30T09:35:03.281Z,46000
2017-03-30T09:40:03.065Z,27000
2017-03-30T09:45:02.671Z,60000
2017-03-30T09:50:03.318Z,35000
2017-03-30T09:55:03.093Z,40000
2017-03-30T10:00:02.761Z,53000
2017-03-30T10:05:03.488Z,43000
2017-03-30T10:10:03.299Z,51000
2017-03-30T10:15:03.197Z,43000
2017-03-30T10:20:02.930Z,52000
2017-03-30T10:25:02.707Z,53000
2017-03-30T10:30:03.559Z,53000
2017-03-30T10:35:03.382Z,52000
2017-03-30T10:40:03.103Z,48000
2017-03-30T10:45:02.735Z,22000
2017-03-30T10:50:02.557Z,30000
2017-03-30T10:55:03.276Z,54000
2017-03-30T11:00:02.938Z,47000
2017-03-30T11:05:02.541Z,42000
2017-03-30T11:10:03.330Z,47000
2017-03-30T11:15:03.003Z,43000
2017-03-30T11:20:02.744Z,49000
2017-03-30T11:25:03.378Z,48000
2017-03-30T11:30:03.130Z,45000
2017-03-30T11:35:02.872Z,44000
2017-03-30T11:40:02.571Z,46000
2017-03-30T11:45:03.236Z,39000
2017-03-30T11:50:02.922Z,45000
2017-03-30T11:55:02.619Z,46000
2017-03-30T12:00:03.188Z,43000
2017-03-30T12:05:02.929Z,48000
2017-03-30T12:10:02.582Z,47000
2017-03-30T12:15:03.459Z,41000
2017-03-30T12:20:03.038Z,45000
2017-03-30T12:25:04.643Z,44000
2017-03-30T12:30:03.348Z,46000
2017-03-30T12:35:02.934Z,16000
2017-03-30T12:40:02.746Z,41000
2017-03-30T12:45:03.371Z,40000
2017-03-30T12:50:03.150Z,51000
2017-03-30T12:55:02.816Z,45000
2017-03-30T13:00:03.417Z,19000
2017-03-30T13:05:03.119Z,44000
2017-03-30T13:10:02.855Z,43000
2017-03-30T13:15:02.464Z,40000
2017-03-30T13:20:03.096Z,39000
2017-03-30T13:25:02.732Z,38000
2017-03-30T13:30:03.388Z,37000
2017-03-30T13:35:02.929Z,37000
2017-03-30T13:40:02.632Z,34000
2017-03-30T13:45:03.294Z,35000
2017-03-30T13:50:03.024Z,35000
2017-03-30T13:55:02.706Z,32000
2017-03-30T14:00:03.284Z,31000
2017-03-30T14:05:02.890Z,33000
2017-03-30T14:10:02.700Z,33000
2017-03-30T14:15:02.477Z,32000
2017-03-30T14:20:03.155Z,31000
2017-03-30T14:25:02.845Z,31000
2017-03-30T14:30:02.705Z,31000
2017-03-30T14:35:02.428Z,30000
2017-03-30T14:40:03.086Z,28000
2017-03-30T14:45:02.735Z,29000
2017-03-30T14:50:03.375Z,28000
2017-03-30T14:55:03.127Z,17000
2017-03-30T15:00:02.741Z,22000
2017-03-30T15:05:03.409Z,20000
2017-03-30T15:10:03.160Z,23000
2017-03-30T15:15:02.928Z,19000
2017-03-30T15:20:02.618Z,13000
2017-03-30T15:25:03.472Z,15000
2017-03-30T15:30:03.263Z,14000
2017-03-30T15:35:02.873Z,14000
2017-03-30T15:40:02.783Z,10000
2017-03-30T15:45:02.491Z,8000
2017-03-30T15:50:03.206Z,6000
2017-03-30T15:55:02.897Z,6000
2017-03-30T16:00:02.571Z,10000
2017-03-30T16:05:03.235Z,11000
2017-03-30T16:10:03.078Z,12000
2017-03-30T16:15:02.775Z,10000
2017-03-30T16:20:02.527Z,9000
2017-03-30T16:25:03.151Z,9000
2017-03-30T16:30:03.043Z,6000
2017-03-30T16:35:02.697Z,5000
2017-03-30T16:40:03.401Z,5000
2017-03-30T16:45:03.141Z,4000
2017-03-30T16:50:02.809Z,4000
2017-03-30T16:55:02.480Z,3000
2017-03-30T17:00:03.199Z,2000
2017-03-30T17:05:03.107Z,2000
2017-03-30T17:10:02.940Z,2000
2017-03-30T17:15:02.720Z,2000
2017-03-30T17:20:02.521Z,1000
2017-03-30T17:25:03.168Z,1000
2017-03-30T17:30:03.088Z,1000
2017-03-30T17:35:02.857Z,1000
2017-03-30T17:40:02.537Z,975
2017-03-30T17:45:03.380Z,703
2017-03-30T17:50:03.054Z,564
2017-03-30T17:55:02.959Z,433
2017-03-30T18:00:02.644Z,170
2017-03-30T18:05:03.446Z,76
2017-03-30T18:10:03.040Z,63
2017-03-30T18:15:02.564Z,41
2017-03-30T18:20:03.290Z,27
2017-03-30T18:25:03.094Z,13
2017-03-30T18:30:02.897Z,5
2017-03-30T18:35:02.629Z,2
2017-03-30T18:40:03.343Z,1
2017-03-30T18:45:02.969Z,0
2017-03-30T18:50:02.607Z,0
2017-03-30T18:55:03.230Z,0
2017-03-30T19:00:02.961Z,0
2017-03-30T19:05:02.751Z,0
2017-03-30T19:10:03.428Z,0
2017-03-30T19:15:03.156Z,0
2017-03-30T19:20:02.793Z,0
2017-03-30T19:25:02.649Z,0
2017-03-30T19:30:03.271Z,0
2017-03-30T19:35:02.989Z,0
2017-03-30T19:40:02.777Z,0
2017-03-30T19:45:02.565Z,0
2017-03-30T19:50:03.307Z,0
2017-03-30T19:55:02.872Z,0
2017-03-30T20:00:02.642Z,0
2017-03-30T20:05:03.383Z,0
2017-03-30T20:10:03.179Z,0
2017-03-30T20:15:02.928Z,0
2017-03-30T20:20:02.609Z,0
2017-03-30T20:25:03.360Z,0
2017-03-30T20:30:03.126Z,0
2017-03-30T20:35:02.850Z,0
2017-03-30T20:40:02.690Z,0
2017-03-30T20:45:02.495Z,0
2017-03-30T20:50:03.263Z,0
2017-03-30T20:55:03.040Z,0
2017-03-30T21:00:02.734Z,0
2017-03-30T21:05:02.533Z,0
2017-03-30T21:10:03.407Z,0
2017-03-30T21:15:03.029Z,0
2017-03-30T21:20:02.782Z,0
2017-03-30T21:25:02.546Z,0
2017-03-30T21:30:03.227Z,0
2017-03-30T21:35:03.098Z,0
2017-03-30T21:40:02.849Z,0
2017-03-30T21:45:02.641Z,0
2017-03-30T21:50:03.263Z,0
2017-03-30T21:55:02.928Z,0
2017-03-30T22:00:02.620Z,0
2017-03-30T22:05:03.378Z,0
2017-03-30T22:10:03.227Z,0
2017-03-30T22:15:02.919Z,0
2017-03-30T22:20:02.668Z,0
2017-03-30T22:25:03.272Z,0
2017-03-30T22:30:02.909Z,0
2017-03-30T22:35:02.590Z,0
2017-03-30T22:40:03.249Z,0
2017-03-30T22:45:03.008Z,0
2017-03-30T22:50:02.624Z,0
2017-03-30T22:55:03.230Z,0
2017-03-30T23:00:02.885Z,0
2017-03-30T23:05:03.468Z,0
2017-03-30T23:10:03.232Z,0
2017-03-30T23:15:02.975Z,0
2017-03-30T23:20:02.696Z,0
2017-03-30T23:25:03.344Z,0
2017-03-30T23:30:02.978Z,0
2017-03-30T23:35:02.953Z,0
2017-03-30T23:40:02.693Z,0
2017-03-30T23:45:03.466Z,0
2017-03-30T23:50:03.169Z,0
2017-03-30T23:55:02.807Z,0
